createdAt,value
2022-11-16T00:03:35.889Z,35.22
2022-11-16T00:08:41.191Z,33.55
2022-11-16T00:13:43.730Z,34.47
2022-11-16T00:18:45.421Z,34.00
2022-11-16T00:23:46.886Z,31.08
2022-11-16T00:28:48.842Z,34.25
2022-11-16T00:33:51.473Z,31.23
2022-11-16T00:38:56.201Z,29.00
2022-11-16T00:43:57.773Z,31.65
2022-11-16T00:48:59.257Z,29.55
2022-11-16T00:54:01.591Z,30.67
2022-11-16T00:59:03.602Z,34.13
2022-11-16T01:04:05.106Z,28.08
2022-11-16T01:09:07.662Z,27.25
2022-11-16T01:14:10.105Z,32.67
2022-11-16T01:19:11.570Z,33.97
2022-11-16T01:24:13.081Z,31.85
2022-11-16T01:29:14.682Z,33.53
2022-11-16T01:34:16.361Z,36.58
2022-11-16T01:39:18.007Z,37.53
2022-11-16T01:44:31.992Z,35.15
2022-11-16T01:49:36.521Z,37.42
2022-11-16T01:54:41.628Z,41.45
2022-11-16T01:59:46.203Z,46.25
2022-11-16T02:10:25.363Z,42.78
2022-11-16T02:15:49.282Z,39.70
2022-11-16T02:20:53.578Z,46.72
2022-11-16T02:26:24.274Z,44.88
2022-11-16T02:31:32.878Z,40.38
2022-11-16T02:36:38.534Z,45.20
2022-11-16T02:41:45.345Z,41.92
2022-11-16T02:46:52.002Z,45.97
2022-11-16T02:51:55.553Z,37.58
2022-11-16T02:57:03.150Z,34.50
2022-11-16T03:02:30.078Z,32.03
2022-11-16T03:07:48.067Z,33.55
2022-11-16T03:12:49.589Z,29.27
2022-11-16T03:17:53.965Z,37.30
2022-11-16T03:23:05.805Z,32.83
2022-11-16T03:28:14.148Z,33.35
2022-11-16T03:33:36.609Z,27.35
2022-11-16T03:38:40.622Z,31.60
2022-11-16T03:43:44.400Z,34.03
2022-11-16T03:48:45.935Z,32.20
2022-11-16T03:53:47.384Z,31.00
2022-11-16T03:58:48.966Z,34.20
2022-11-16T04:03:50.471Z,30.58
2022-11-16T04:09:30.845Z,33.55
2022-11-16T04:14:51.437Z,31.55
2022-11-16T04:20:11.478Z,29.30
2022-11-16T04:25:19.607Z,29.08
2022-11-16T04:30:21.378Z,29.92
2022-11-16T04:35:54.947Z,27.85
2022-11-16T04:40:56.409Z,27.38
2022-11-16T04:46:16.282Z,29.42
2022-11-16T04:51:17.758Z,32.97
2022-11-16T04:56:19.229Z,33.22
2022-11-16T05:01:40.794Z,33.17
2022-11-16T05:06:42.322Z,31.20
2022-11-16T05:11:43.930Z,29.38
2022-11-16T05:16:45.473Z,31.67
2022-11-16T05:21:47.054Z,32.50
2022-11-16T05:26:48.543Z,34.80
2022-11-16T05:31:50.050Z,34.33
2022-11-16T05:36:52.037Z,33.58
2022-11-16T05:41:54.298Z,34.17
2022-11-16T05:46:56.143Z,34.17
2022-11-16T05:51:57.672Z,35.00
2022-11-16T05:56:59.305Z,32.92
2022-11-16T06:02:01.032Z,30.23
2022-11-16T06:07:02.698Z,34.13
2022-11-16T06:12:04.807Z,34.72
2022-11-16T06:17:06.303Z,35.35
2022-11-16T06:22:07.800Z,37.08
2022-11-16T06:27:09.260Z,36.13
2022-11-16T06:32:10.738Z,37.28
2022-11-16T06:37:12.220Z,36.78
2022-11-16T06:42:13.665Z,34.95
2022-11-16T06:47:15.146Z,33.88
2022-11-16T06:52:16.773Z,30.73
2022-11-16T06:57:18.291Z,35.53
2022-11-16T07:02:21.426Z,31.25
2022-11-16T07:07:22.991Z,30.55
2022-11-16T07:12:24.617Z,29.02
2022-11-16T07:17:26.151Z,33.75
2022-11-16T07:22:27.760Z,34.40
2022-11-16T07:27:29.239Z,33.65
2022-11-16T07:32:31.083Z,36.80
2022-11-16T07:37:33.551Z,32.95
2022-11-16T07:42:35.122Z,35.88
2022-11-16T07:47:37.880Z,36.53
2022-11-16T07:52:39.373Z,34.42
2022-11-16T07:57:41.320Z,31.13
2022-11-16T08:02:43.040Z,29.58
2022-11-16T08:07:44.517Z,38.28
2022-11-16T08:12:46.074Z,36.80
2022-11-16T08:17:47.621Z,40.10
2022-11-16T08:22:50.193Z,43.97
2022-11-16T08:27:51.718Z,47.97
2022-11-16T08:32:53.298Z,42.38
2022-11-16T08:37:55.021Z,50.63
2022-11-16T08:42:57.116Z,49.28
2022-11-16T08:48:04.058Z,59.25
2022-11-16T08:53:05.830Z,52.78
2022-11-16T08:58:07.334Z,49.45
2022-11-16T09:03:08.928Z,58.30
2022-11-16T09:08:11.496Z,55.97
2022-11-16T09:13:13.058Z,47.50
2022-11-16T09:18:14.650Z,59.63
2022-11-16T09:23:20.961Z,47.55
2022-11-16T09:28:27.321Z,47.72
2022-11-16T09:33:30.958Z,44.85
2022-11-16T09:39:17.814Z,38.47
2022-11-16T09:44:33.025Z,42.78
2022-11-16T09:49:46.115Z,39.55
2022-11-16T09:54:48.740Z,38.22
2022-11-16T09:59:57.471Z,38.92
2022-11-16T10:05:14.538Z,45.05
2022-11-16T10:10:18.545Z,37.20
2022-11-16T10:15:32.097Z,44.75
2022-11-16T10:21:05.790Z,40.87
2022-11-16T10:26:28.961Z,34.33
2022-11-16T10:31:56.855Z,35.00
2022-11-16T10:37:08.423Z,30.77
2022-11-16T10:42:19.138Z,30.75
2022-11-16T10:47:34.072Z,33.95
2022-11-16T10:52:35.670Z,37.67
2022-11-16T10:57:59.905Z,38.78
2022-11-16T11:08:10.447Z,36.15
2022-11-16T11:13:11.882Z,42.78
2022-11-16T11:18:23.675Z,38.95
2022-11-16T11:23:26.241Z,39.80
2022-11-16T11:28:36.665Z,35.10
2022-11-16T11:33:44.033Z,33.92
2022-11-16T11:38:58.085Z,36.85
2022-11-16T11:44:05.564Z,28.75
2022-11-16T11:49:23.639Z,37.25
2022-11-16T11:54:32.894Z,38.00
2022-11-16T11:59:35.296Z,32.53
2022-11-16T12:04:58.146Z,33.58
2022-11-16T12:10:18.495Z,33.00
2022-11-16T12:15:37.981Z,30.13
2022-11-16T12:20:55.741Z,33.53
2022-11-16T12:26:05.107Z,33.42
2022-11-16T12:31:24.549Z,33.22
2022-11-16T12:36:59.691Z,28.00
2022-11-16T12:42:16.522Z,32.70
2022-11-16T12:47:45.250Z,29.05
2022-11-16T12:53:24.868Z,29.42
2022-11-16T12:58:53.603Z,27.92
2022-11-16T13:04:03.644Z,26.85
2022-11-16T13:09:14.332Z,28.73
2022-11-16T13:14:24.006Z,25.67
2022-11-16T13:19:25.850Z,27.25
2022-11-16T13:24:38.190Z,23.75
2022-11-16T13:29:59.378Z,23.95
2022-11-16T13:35:05.041Z,22.42
2022-11-16T13:40:06.488Z,25.90
2022-11-16T13:45:16.659Z,23.48
2022-11-16T13:50:21.705Z,20.48
2022-11-16T13:55:46.396Z,22.60
2022-11-16T14:01:14.702Z,23.52
2022-11-16T14:06:19.207Z,20.50
2022-11-16T14:11:39.041Z,19.55
2022-11-16T14:16:44.790Z,20.00
2022-11-16T14:22:07.329Z,17.27
2022-11-16T14:27:29.236Z,19.65
2022-11-16T14:32:41.282Z,15.15
2022-11-16T14:37:44.234Z,18.13
2022-11-16T14:43:16.898Z,16.55
2022-11-16T14:48:22.212Z,16.10
2022-11-16T14:53:25.048Z,16.05
2022-11-16T14:58:26.531Z,14.90
2022-11-16T15:03:40.246Z,16.52
2022-11-16T15:08:50.324Z,16.05
2022-11-16T15:13:52.117Z,14.35
2022-11-16T15:19:00.752Z,13.23
2022-11-16T15:24:28.767Z,12.93
2022-11-16T15:29:24.667Z,15.60
2022-11-16T15:34:26.269Z,14.82
2022-11-16T15:39:33.357Z,13.30
2022-11-16T15:44:35.103Z,9.52
2022-11-16T15:49:40.078Z,10.00
2022-11-16T15:55:00.369Z,14.43
2022-11-16T16:00:02.001Z,8.75
2022-11-16T16:05:04.194Z,9.18
2022-11-16T16:10:32.501Z,10.07
2022-11-16T16:15:36.504Z,11.57
2022-11-16T16:20:38.250Z,10.77
2022-11-16T16:25:39.757Z,10.10
2022-11-16T16:30:41.264Z,13.25
2022-11-16T16:35:42.737Z,12.38
2022-11-16T16:40:44.288Z,13.52
2022-11-16T16:45:45.846Z,14.43
2022-11-16T16:50:47.437Z,14.95
2022-11-16T16:55:50.221Z,16.58
2022-11-16T17:00:54.600Z,16.70
2022-11-16T17:06:02.041Z,16.35
2022-11-16T17:11:04.575Z,18.63
2022-11-16T17:16:06.395Z,14.82
2022-11-16T17:21:09.627Z,16.40
2022-11-16T17:26:11.146Z,15.20
2022-11-16T17:31:13.467Z,15.10
2022-11-16T17:36:15.012Z,15.80
2022-11-16T17:41:19.672Z,15.07
2022-11-16T17:46:23.662Z,13.77
2022-11-16T17:51:26.089Z,14.00
2022-11-16T17:56:28.741Z,15.13
2022-11-16T18:01:31.295Z,13.48
2022-11-16T18:06:33.220Z,10.98
2022-11-16T18:11:35.852Z,13.52
2022-11-16T18:16:37.613Z,13.52
2022-11-16T18:21:40.575Z,12.20
2022-11-16T18:26:42.255Z,12.75
2022-11-16T18:31:43.807Z,11.10
2022-11-16T18:36:48.785Z,9.43
2022-11-16T18:41:55.157Z,10.40
2022-11-16T18:46:56.946Z,13.32
2022-11-16T18:51:58.445Z,11.18
2022-11-16T18:57:00.412Z,12.82
2022-11-16T19:02:01.951Z,11.35
2022-11-16T19:07:03.476Z,9.88
2022-11-16T19:12:05.282Z,8.82
2022-11-16T19:17:06.824Z,8.15
2022-11-16T19:22:08.332Z,8.60
2022-11-16T19:27:09.835Z,10.50
2022-11-16T19:32:11.328Z,9.35
2022-11-16T19:37:13.900Z,7.55
2022-11-16T19:42:15.418Z,8.27
2022-11-16T19:47:17.505Z,7.25
2022-11-16T19:52:19.834Z,7.63
2022-11-16T19:57:21.344Z,8.07
2022-11-16T20:02:22.837Z,8.98
2022-11-16T20:07:24.421Z,7.13
2022-11-16T20:12:25.970Z,6.43
2022-11-16T20:17:27.512Z,5.63
2022-11-16T20:22:29.027Z,9.95
2022-11-16T20:27:30.551Z,5.60
2022-11-16T20:32:32.051Z,6.53
2022-11-16T20:37:33.625Z,6.03
2022-11-16T20:42:35.094Z,6.32
2022-11-16T20:47:36.978Z,6.13
2022-11-16T20:52:43.056Z,5.25
2022-11-16T20:57:45.928Z,7.18
2022-11-16T21:02:47.434Z,9.43
2022-11-16T21:07:48.953Z,5.80
2022-11-16T21:13:08.801Z,7.20
2022-11-16T21:18:10.298Z,4.88
2022-11-16T21:23:11.787Z,6.18
2022-11-16T21:28:13.275Z,4.80
2022-11-16T21:33:14.754Z,6.85
2022-11-16T21:38:16.460Z,8.00
2022-11-16T21:43:18.004Z,6.30
2022-11-16T21:48:19.475Z,4.50
2022-11-16T21:53:20.979Z,5.05
2022-11-16T21:58:22.601Z,5.82
2022-11-16T22:03:29.375Z,8.88
2022-11-16T22:08:30.843Z,7.33
2022-11-16T22:13:32.528Z,5.47
2022-11-16T22:18:34.697Z,4.55
2022-11-16T22:23:37.327Z,7.23
2022-11-16T22:28:39.656Z,4.25
2022-11-16T22:33:41.790Z,4.97
2022-11-16T22:38:43.281Z,5.40
2022-11-16T22:43:44.754Z,4.60
2022-11-16T22:48:47.836Z,3.45
2022-11-16T22:53:57.623Z,3.20
2022-11-16T22:59:00.766Z,3.15
2022-11-16T23:04:02.377Z,2.97
2022-11-16T23:09:04.392Z,6.93
2022-11-16T23:14:25.912Z,3.42
2022-11-16T23:19:46.292Z,2.35
2022-11-16T23:25:06.475Z,3.35
2022-11-16T23:30:12.682Z,2.35
2022-11-16T23:35:14.568Z,2.55
2022-11-16T23:40:16.402Z,2.00
2022-11-16T23:45:18.473Z,4.03
2022-11-16T23:50:20.008Z,2.03
2022-11-16T23:55:23.033Z,2.97
